createdAt,value
2023-02-02T00:00:39.793Z,6.31
2023-02-02T00:01:36.576Z,6.31
2023-02-02T00:02:33.387Z,6.43
2023-02-02T00:03:31.082Z,6.16
2023-02-02T00:04:31.132Z,6.60
2023-02-02T00:05:27.999Z,5.92
2023-02-02T00:06:27.327Z,6.01
2023-02-02T00:07:24.076Z,6.44
2023-02-02T00:08:22.398Z,6.69
2023-02-02T00:09:20.909Z,5.96
2023-02-02T00:10:17.831Z,5.96
2023-02-02T00:11:16.231Z,5.97
2023-02-02T00:12:13.003Z,5.12
2023-02-02T00:13:09.685Z,6.11
2023-02-02T00:14:07.936Z,6.26
2023-02-02T00:15:05.025Z,6.64
2023-02-02T00:16:26.464Z,6.45
2023-02-02T00:17:23.215Z,6.12
2023-02-02T00:18:20.060Z,6.42
2023-02-02T00:19:20.133Z,5.93
2023-02-02T00:20:16.923Z,5.58
2023-02-02T00:21:13.705Z,5.80
2023-02-02T00:22:10.512Z,6.10
2023-02-02T00:23:25.866Z,6.11
2023-02-02T00:24:23.471Z,6.13
2023-02-02T00:25:20.301Z,5.98
2023-02-02T00:26:17.875Z,5.40
2023-02-02T00:27:14.770Z,5.11
2023-02-02T00:28:11.455Z,5.58
2023-02-02T00:29:15.759Z,5.51
2023-02-02T00:30:13.271Z,5.67
2023-02-02T00:31:10.163Z,5.09
2023-02-02T00:32:06.972Z,5.01
2023-02-02T00:33:03.830Z,5.45
2023-02-02T00:34:01.055Z,5.02
2023-02-02T00:34:57.837Z,5.57
2023-02-02T00:35:54.958Z,5.97
2023-02-02T00:36:52.977Z,6.03
2023-02-02T00:37:49.707Z,5.87
2023-02-02T00:38:47.517Z,6.00
2023-02-02T00:39:44.219Z,5.96
2023-02-02T00:40:40.997Z,5.85
2023-02-02T00:41:37.710Z,5.89
2023-02-02T00:42:34.507Z,5.53
2023-02-02T00:43:31.279Z,6.07
2023-02-02T00:44:46.504Z,5.25
2023-02-02T00:45:43.603Z,5.96
2023-02-02T00:46:41.836Z,4.82
2023-02-02T00:47:38.579Z,5.23
2023-02-02T00:48:35.341Z,6.04
2023-02-02T00:49:32.134Z,4.65
2023-02-02T00:50:29.110Z,5.98
2023-02-02T00:51:25.902Z,4.35
2023-02-02T00:52:22.620Z,5.06
2023-02-02T00:53:20.245Z,5.22
2023-02-02T00:54:17.042Z,5.70
2023-02-02T00:55:15.269Z,5.47
2023-02-02T00:56:12.046Z,5.81
2023-02-02T00:57:13.602Z,6.09
2023-02-02T00:58:10.525Z,5.89
2023-02-02T00:59:07.299Z,6.06
2023-02-02T01:00:07.020Z,5.77
2023-02-02T01:01:03.898Z,5.60
2023-02-02T01:02:02.132Z,6.07
2023-02-02T01:03:04.369Z,6.07
2023-02-02T01:04:01.691Z,6.34
2023-02-02T01:04:58.519Z,5.53
2023-02-02T01:05:55.259Z,5.31
2023-02-02T01:06:52.006Z,5.39
2023-02-02T01:07:49.158Z,5.57
2023-02-02T01:08:46.143Z,6.06
2023-02-02T01:09:42.899Z,6.02
2023-02-02T01:10:39.687Z,5.97
2023-02-02T01:11:36.861Z,5.36
2023-02-02T01:12:33.620Z,5.78
2023-02-02T01:13:30.425Z,5.78
2023-02-02T01:14:27.667Z,5.37
2023-02-02T01:15:24.693Z,5.75
2023-02-02T01:16:24.933Z,5.39
2023-02-02T01:17:21.854Z,5.55
2023-02-02T01:18:18.616Z,6.03
2023-02-02T01:19:16.372Z,6.15
2023-02-02T01:20:18.767Z,6.33
2023-02-02T01:21:15.546Z,6.22
2023-02-02T01:22:12.507Z,6.38
2023-02-02T01:23:09.498Z,5.31
2023-02-02T01:24:06.628Z,6.22
2023-02-02T01:25:03.475Z,6.01
2023-02-02T01:26:02.676Z,5.36
2023-02-02T01:26:59.505Z,6.07
2023-02-02T01:27:56.339Z,5.73
2023-02-02T01:28:53.155Z,5.96
2023-02-02T01:29:49.958Z,5.74
2023-02-02T01:30:46.857Z,5.76
2023-02-02T01:31:44.325Z,4.57
2023-02-02T01:32:41.115Z,5.57
2023-02-02T01:33:38.004Z,6.04
2023-02-02T01:34:35.138Z,5.39
2023-02-02T01:35:32.440Z,5.92
2023-02-02T01:36:29.262Z,5.52
2023-02-02T01:37:26.025Z,5.68
2023-02-02T01:38:24.563Z,5.69
2023-02-02T01:39:21.391Z,5.12
2023-02-02T01:40:18.290Z,3.61
2023-02-02T01:41:18.739Z,5.23
2023-02-02T01:42:23.640Z,5.05
2023-02-02T01:43:31.254Z,5.61
2023-02-02T01:44:53.214Z,5.17
2023-02-02T01:45:51.810Z,4.76
2023-02-02T01:46:48.579Z,4.53
2023-02-02T01:47:54.410Z,5.36
2023-02-02T01:48:58.807Z,5.44
2023-02-02T01:49:56.175Z,4.17
2023-02-02T01:50:59.211Z,4.93
2023-02-02T01:53:20.031Z,4.67
2023-02-02T01:54:25.048Z,5.06
2023-02-02T01:55:26.813Z,2.02
2023-02-02T01:56:37.436Z,4.52
2023-02-02T01:57:34.095Z,5.26
2023-02-02T01:58:35.459Z,2.37
2023-02-02T01:59:34.695Z,5.09
2023-02-02T02:00:31.762Z,5.05
2023-02-02T02:01:28.917Z,3.99
2023-02-02T02:02:28.982Z,5.08
2023-02-02T02:03:29.645Z,4.42
2023-02-02T02:04:30.819Z,4.15
2023-02-02T02:05:36.354Z,4.31
2023-02-02T02:06:33.917Z,4.59
2023-02-02T02:07:31.136Z,4.42
2023-02-02T02:08:34.787Z,4.46
2023-02-02T02:09:31.635Z,4.80
2023-02-02T02:10:28.459Z,4.65
2023-02-02T02:11:25.610Z,4.30
2023-02-02T02:12:22.438Z,3.08
2023-02-02T02:13:44.094Z,3.60
2023-02-02T02:15:01.919Z,4.39
2023-02-02T02:16:24.808Z,4.56
2023-02-02T02:17:32.492Z,4.42
2023-02-02T02:18:38.956Z,4.08
2023-02-02T02:20:31.910Z,4.26
2023-02-02T02:21:59.006Z,4.40
2023-02-02T02:23:32.962Z,4.63
2023-02-02T02:25:20.181Z,3.46
2023-02-02T02:26:38.635Z,4.54
2023-02-02T02:27:56.403Z,4.39
2023-02-02T02:29:22.523Z,4.50
2023-02-02T02:30:28.246Z,4.49
2023-02-02T02:31:58.839Z,4.37
2023-02-02T02:33:06.980Z,4.13
2023-02-02T02:34:06.415Z,4.54
2023-02-02T02:35:37.815Z,4.19
2023-02-02T02:36:56.461Z,4.00
2023-02-02T02:38:17.926Z,4.38
2023-02-02T02:39:29.318Z,4.36
2023-02-02T02:40:31.640Z,4.29
2023-02-02T02:41:34.853Z,4.15
2023-02-02T02:42:41.656Z,4.45
2023-02-02T02:43:48.894Z,3.13
2023-02-02T02:44:49.303Z,3.29
2023-02-02T02:45:46.422Z,3.90
2023-02-02T02:46:44.631Z,3.53
2023-02-02T02:47:43.792Z,3.99
2023-02-02T02:48:44.883Z,3.87
2023-02-02T02:49:49.483Z,4.00
2023-02-02T02:50:46.412Z,4.25
2023-02-02T02:51:49.058Z,4.41
2023-02-02T02:52:49.610Z,3.76
2023-02-02T02:53:46.373Z,4.28
2023-02-02T02:54:51.697Z,3.93
2023-02-02T02:56:12.521Z,4.39
2023-02-02T02:57:18.934Z,4.36
2023-02-02T02:58:33.660Z,4.42
2023-02-02T03:00:01.447Z,2.93
2023-02-02T03:01:17.666Z,4.14
2023-02-02T03:02:17.322Z,4.26
2023-02-02T03:03:37.980Z,3.61
2023-02-02T03:05:01.006Z,4.22
2023-02-02T03:06:28.472Z,2.48
2023-02-02T03:07:49.739Z,4.45
2023-02-02T03:08:54.683Z,4.29
2023-02-02T03:09:55.734Z,3.85
2023-02-02T03:10:55.655Z,3.27
2023-02-02T03:11:52.920Z,4.28
2023-02-02T03:12:52.030Z,4.04
2023-02-02T03:13:49.239Z,4.18
2023-02-02T03:14:46.066Z,3.68
2023-02-02T03:15:44.890Z,3.46
2023-02-02T03:16:41.620Z,4.07
2023-02-02T03:17:38.542Z,4.25
2023-02-02T03:18:35.795Z,3.58
2023-02-02T03:19:32.802Z,3.66
2023-02-02T03:20:29.507Z,4.08
2023-02-02T03:21:26.287Z,4.14
2023-02-02T03:22:23.086Z,3.61
2023-02-02T03:23:19.964Z,3.89
2023-02-02T03:24:16.708Z,3.86
2023-02-02T03:25:13.655Z,3.69
2023-02-02T03:26:10.649Z,3.83
2023-02-02T03:27:07.480Z,3.85
2023-02-02T03:28:05.594Z,2.48
2023-02-02T03:29:03.236Z,3.26
2023-02-02T03:30:00.149Z,4.05
2023-02-02T03:31:02.158Z,4.00
2023-02-02T03:32:00.545Z,3.24
2023-02-02T03:32:57.517Z,3.18
2023-02-02T03:33:55.137Z,4.11
2023-02-02T03:34:52.021Z,4.21
2023-02-02T03:35:48.807Z,4.31
2023-02-02T03:36:45.717Z,3.85
2023-02-02T03:37:42.506Z,4.33
2023-02-02T03:38:39.372Z,4.30
2023-02-02T03:39:36.221Z,3.05
2023-02-02T03:40:33.015Z,4.44
2023-02-02T03:41:29.753Z,4.32
2023-02-02T03:42:26.578Z,4.57
2023-02-02T03:43:24.315Z,4.55
2023-02-02T03:44:21.090Z,4.38
2023-02-02T03:45:17.961Z,2.80
2023-02-02T03:46:15.152Z,4.44
2023-02-02T03:47:11.987Z,3.74
2023-02-02T03:48:08.842Z,2.51
2023-02-02T03:49:05.717Z,2.39
2023-02-02T03:50:02.521Z,3.00
2023-02-02T03:50:59.372Z,2.89
2023-02-02T03:51:56.126Z,3.11
2023-02-02T03:52:54.752Z,3.92
2023-02-02T03:53:51.517Z,3.91
2023-02-02T03:54:48.219Z,4.15
2023-02-02T03:55:44.943Z,3.83
2023-02-02T03:56:41.702Z,2.80
2023-02-02T03:57:38.473Z,3.34
2023-02-02T03:58:35.301Z,3.71
2023-02-02T03:59:32.066Z,3.58
2023-02-02T04:00:28.834Z,3.07
2023-02-02T04:01:43.319Z,1.00
2023-02-02T04:02:40.268Z,2.49
2023-02-02T04:03:37.712Z,2.91
2023-02-02T04:04:34.570Z,3.88
2023-02-02T04:05:31.448Z,3.45
2023-02-02T04:06:28.342Z,3.82
2023-02-02T04:07:25.166Z,3.58
2023-02-02T04:08:21.874Z,3.70
2023-02-02T04:09:18.723Z,2.84
2023-02-02T04:10:15.644Z,3.28
2023-02-02T04:11:13.022Z,3.52
2023-02-02T04:12:09.838Z,3.87
2023-02-02T04:13:06.593Z,3.21
2023-02-02T04:14:03.287Z,2.93
2023-02-02T04:15:00.026Z,3.34
2023-02-02T04:16:02.135Z,3.16
2023-02-02T04:16:58.958Z,2.29
2023-02-02T04:17:55.705Z,3.63
2023-02-02T04:18:55.536Z,3.69
2023-02-02T04:19:58.139Z,3.83
2023-02-02T04:21:02.219Z,3.35
2023-02-02T04:21:58.955Z,3.71
2023-02-02T04:22:55.623Z,3.73
2023-02-02T04:23:52.378Z,3.41
2023-02-02T04:24:49.096Z,2.30
2023-02-02T04:25:50.260Z,3.92
2023-02-02T04:26:47.104Z,3.22
2023-02-02T04:27:43.910Z,3.50
2023-02-02T04:28:40.668Z,2.08
2023-02-02T04:29:37.401Z,3.16
2023-02-02T04:30:34.181Z,1.22
2023-02-02T04:31:32.091Z,2.98
2023-02-02T04:32:28.831Z,3.43
2023-02-02T04:33:28.186Z,3.63
2023-02-02T04:34:24.898Z,2.28
2023-02-02T04:35:21.810Z,2.67
2023-02-02T04:36:18.681Z,3.38
2023-02-02T04:37:15.443Z,3.82
2023-02-02T04:38:13.050Z,4.03
2023-02-02T04:39:12.049Z,3.28
2023-02-02T04:40:09.414Z,3.60
2023-02-02T04:41:08.669Z,3.75
2023-02-02T04:42:05.523Z,3.56
2023-02-02T04:43:02.255Z,3.08
2023-02-02T04:43:59.072Z,3.85
2023-02-02T04:44:55.796Z,4.44
2023-02-02T04:45:57.148Z,4.28
2023-02-02T04:46:54.276Z,4.35
2023-02-02T04:47:51.612Z,4.05
2023-02-02T04:48:49.453Z,3.71
2023-02-02T04:49:46.195Z,3.89
2023-02-02T04:50:42.988Z,4.31
2023-02-02T04:51:40.941Z,3.76
2023-02-02T04:53:09.584Z,4.42
2023-02-02T04:54:07.230Z,4.16
2023-02-02T04:55:04.163Z,4.24
2023-02-02T04:56:29.209Z,4.86
2023-02-02T04:57:26.041Z,3.55
2023-02-02T04:58:23.099Z,4.53
2023-02-02T04:59:19.951Z,4.54
2023-02-02T05:00:17.408Z,4.70
2023-02-02T05:01:20.807Z,3.29
2023-02-02T05:02:17.616Z,4.59
2023-02-02T05:03:14.440Z,4.08
2023-02-02T05:04:12.018Z,4.41
2023-02-02T05:05:12.666Z,4.51
2023-02-02T05:06:09.870Z,3.89
2023-02-02T05:07:06.587Z,4.66
2023-02-02T05:08:03.592Z,4.49
2023-02-02T05:09:01.224Z,3.51
2023-02-02T05:09:58.011Z,3.74
2023-02-02T05:10:54.836Z,3.98
2023-02-02T05:11:51.624Z,3.78
2023-02-02T05:12:48.461Z,3.80
2023-02-02T05:13:47.607Z,3.34
2023-02-02T05:14:44.427Z,3.49
2023-02-02T05:15:41.327Z,3.64
2023-02-02T05:16:39.726Z,3.67
2023-02-02T05:17:36.571Z,3.76
2023-02-02T05:18:33.483Z,3.29
2023-02-02T05:19:30.281Z,2.79
2023-02-02T05:20:27.144Z,2.94
2023-02-02T05:21:24.546Z,2.51
2023-02-02T05:22:21.326Z,2.52
2023-02-02T05:23:18.828Z,3.07
2023-02-02T05:24:15.750Z,2.98
2023-02-02T05:25:12.452Z,3.02
2023-02-02T05:26:15.640Z,2.52
2023-02-02T05:27:12.461Z,3.08
2023-02-02T05:28:09.241Z,3.36
2023-02-02T05:29:09.362Z,2.56
2023-02-02T05:30:06.771Z,3.16
2023-02-02T05:31:07.745Z,2.21
2023-02-02T05:32:04.940Z,2.91
2023-02-02T05:33:01.766Z,1.15
2023-02-02T05:33:58.929Z,0.95
2023-02-02T05:34:55.766Z,1.64
2023-02-02T05:35:52.902Z,2.92
2023-02-02T05:36:49.947Z,2.82
2023-02-02T05:37:46.704Z,1.01
2023-02-02T05:38:43.441Z,2.11
2023-02-02T05:39:40.252Z,2.33
2023-02-02T05:40:36.989Z,1.42
2023-02-02T05:41:33.769Z,2.15
2023-02-02T05:42:30.588Z,0.35
2023-02-02T05:43:32.272Z,1.58
2023-02-02T05:44:29.007Z,2.47
2023-02-02T05:45:26.130Z,2.62
2023-02-02T05:46:23.070Z,2.91
2023-02-02T05:47:19.896Z,3.04
2023-02-02T05:48:16.695Z,2.90
2023-02-02T05:49:14.549Z,2.76
2023-02-02T05:50:11.536Z,2.38
2023-02-02T05:51:17.426Z,3.20
2023-02-02T05:52:22.326Z,2.29
2023-02-02T05:53:19.147Z,2.24
2023-02-02T05:54:20.395Z,2.93
2023-02-02T05:55:18.439Z,3.25
2023-02-02T05:56:16.025Z,3.43
2023-02-02T05:57:12.963Z,3.50
2023-02-02T05:58:09.744Z,3.33
2023-02-02T05:59:07.581Z,3.41
2023-02-02T06:00:05.811Z,3.34
2023-02-02T06:01:02.561Z,2.86
2023-02-02T06:01:59.332Z,3.38
2023-02-02T06:02:56.136Z,3.59
2023-02-02T06:03:52.926Z,2.89
2023-02-02T06:04:49.834Z,3.61
2023-02-02T06:05:48.552Z,1.95
2023-02-02T06:06:46.665Z,3.43
2023-02-02T06:07:43.377Z,3.46
2023-02-02T06:08:40.327Z,2.68
2023-02-02T06:09:37.087Z,3.23
2023-02-02T06:10:33.987Z,2.54
2023-02-02T06:11:35.341Z,2.97
2023-02-02T06:12:32.156Z,3.07
2023-02-02T06:13:28.839Z,3.36
2023-02-02T06:14:25.643Z,3.57
2023-02-02T06:15:22.618Z,3.74
2023-02-02T06:16:19.690Z,3.48
2023-02-02T06:17:16.422Z,3.28
2023-02-02T06:18:13.295Z,3.12
2023-02-02T06:19:10.009Z,3.25
2023-02-02T06:20:07.067Z,3.26
2023-02-02T06:21:06.220Z,2.68
2023-02-02T06:22:03.077Z,3.39
2023-02-02T06:22:59.911Z,3.36
2023-02-02T06:23:58.186Z,2.85
2023-02-02T06:24:55.000Z,3.16
2023-02-02T06:25:51.789Z,3.10
2023-02-02T06:26:48.572Z,2.14
2023-02-02T06:27:46.382Z,2.69
2023-02-02T06:28:43.695Z,3.55
2023-02-02T06:29:40.543Z,3.58
2023-02-02T06:30:38.938Z,3.23
2023-02-02T06:31:35.774Z,2.79
2023-02-02T06:32:32.732Z,3.13
2023-02-02T06:33:29.494Z,3.36
2023-02-02T06:34:26.222Z,2.12
2023-02-02T06:35:23.800Z,3.32
2023-02-02T06:36:21.419Z,2.54
2023-02-02T06:37:18.158Z,2.44
2023-02-02T06:38:14.917Z,3.30
2023-02-02T06:39:12.487Z,3.41
2023-02-02T06:40:10.411Z,2.59
2023-02-02T06:41:07.260Z,3.21
2023-02-02T06:42:19.353Z,2.11
2023-02-02T06:43:17.755Z,2.83
2023-02-02T06:44:15.432Z,3.07
2023-02-02T06:45:12.404Z,2.83
2023-02-02T06:46:09.172Z,2.66
2023-02-02T06:47:05.907Z,3.16
2023-02-02T06:48:04.175Z,3.28
2023-02-02T06:49:00.944Z,2.45
2023-02-02T06:49:57.727Z,3.05
2023-02-02T06:50:57.507Z,3.15
2023-02-02T06:51:54.245Z,2.54
2023-02-02T06:52:52.072Z,3.42
2023-02-02T06:53:49.568Z,2.95
2023-02-02T06:54:46.318Z,3.60
2023-02-02T06:55:43.050Z,3.33
2023-02-02T06:56:42.787Z,3.82
2023-02-02T06:57:41.404Z,3.63
2023-02-02T06:58:38.220Z,4.22
2023-02-02T06:59:35.207Z,4.19
2023-02-02T07:00:32.279Z,4.05
2023-02-02T07:01:29.111Z,2.93
2023-02-02T07:02:25.925Z,5.13
2023-02-02T07:03:22.762Z,4.81
2023-02-02T07:04:21.968Z,5.59
2023-02-02T07:05:20.418Z,4.43
2023-02-02T07:06:25.064Z,5.70
2023-02-02T07:07:21.797Z,5.53
2023-02-02T07:08:18.528Z,5.75
2023-02-02T07:09:15.399Z,5.86
2023-02-02T07:11:14.112Z,4.97
2023-02-02T07:11:28.987Z,5.85
2023-02-02T07:12:27.171Z,5.98
2023-02-02T07:13:23.888Z,4.88
2023-02-02T07:14:20.636Z,5.44
2023-02-02T07:15:17.547Z,4.70
2023-02-02T07:16:16.101Z,5.63
2023-02-02T07:17:13.027Z,4.95
2023-02-02T07:18:09.761Z,5.59
2023-02-02T07:19:06.601Z,5.31
2023-02-02T07:20:03.606Z,5.63
2023-02-02T07:21:01.470Z,5.79
2023-02-02T07:21:58.286Z,5.28
2023-02-02T07:22:55.392Z,5.57
2023-02-02T07:23:52.307Z,5.61
2023-02-02T07:24:49.143Z,4.86
2023-02-02T07:25:45.919Z,6.12
2023-02-02T07:26:42.801Z,5.60
2023-02-02T07:27:39.640Z,5.67
2023-02-02T07:28:36.729Z,6.33
2023-02-02T07:29:33.598Z,5.09
2023-02-02T07:30:30.777Z,5.58
2023-02-02T07:31:27.787Z,5.18
2023-02-02T07:32:24.587Z,5.49
2023-02-02T07:33:21.686Z,6.69
2023-02-02T07:34:18.537Z,5.84
2023-02-02T07:35:17.044Z,6.62
2023-02-02T07:36:16.781Z,6.57
2023-02-02T07:37:13.623Z,6.51
2023-02-02T07:38:10.470Z,7.13
2023-02-02T07:39:07.868Z,7.09
2023-02-02T07:40:04.950Z,6.53
2023-02-02T07:41:02.063Z,6.16
2023-02-02T07:41:58.855Z,6.32
2023-02-02T07:42:55.843Z,6.83
2023-02-02T07:43:52.746Z,6.34
2023-02-02T07:44:49.547Z,6.86
2023-02-02T07:45:46.308Z,6.03
2023-02-02T07:46:44.841Z,6.00
2023-02-02T07:47:41.908Z,6.34
2023-02-02T07:48:39.720Z,6.07
2023-02-02T07:49:36.553Z,6.74
2023-02-02T07:50:33.398Z,6.52
2023-02-02T07:51:32.255Z,5.58
2023-02-02T07:52:30.111Z,5.94
2023-02-02T07:53:28.771Z,6.25
2023-02-02T07:54:28.402Z,5.83
2023-02-02T07:55:25.174Z,6.57
2023-02-02T07:56:25.495Z,6.59
2023-02-02T07:57:22.258Z,5.83
2023-02-02T07:58:19.059Z,6.35
2023-02-02T07:59:15.769Z,7.04
2023-02-02T08:00:13.179Z,7.12
2023-02-02T08:01:15.701Z,6.63
2023-02-02T08:02:12.538Z,6.73
2023-02-02T08:03:12.545Z,7.27
2023-02-02T08:04:09.460Z,6.91
2023-02-02T08:05:07.500Z,7.56
2023-02-02T08:06:18.745Z,7.13
2023-02-02T08:07:15.594Z,7.30
2023-02-02T08:08:12.405Z,7.36
2023-02-02T08:09:09.747Z,7.34
2023-02-02T08:10:06.928Z,7.89
2023-02-02T08:11:03.728Z,7.43
2023-02-02T08:12:02.366Z,7.03
2023-02-02T08:12:59.177Z,8.08
2023-02-02T08:13:59.322Z,7.42
2023-02-02T08:14:56.347Z,8.16
2023-02-02T08:15:53.198Z,7.38
2023-02-02T08:16:49.967Z,6.83
2023-02-02T08:17:49.979Z,6.98
2023-02-02T08:18:47.691Z,7.70
2023-02-02T08:19:44.598Z,7.29
2023-02-02T08:20:41.401Z,7.82
2023-02-02T08:21:38.340Z,8.14
2023-02-02T08:22:35.111Z,7.12
2023-02-02T08:23:32.197Z,8.27
2023-02-02T08:24:30.885Z,8.40
2023-02-02T08:25:28.444Z,8.32
2023-02-02T08:26:28.051Z,7.39
2023-02-02T08:27:24.956Z,7.01
2023-02-02T08:28:21.984Z,7.97
2023-02-02T08:29:18.758Z,7.42
2023-02-02T08:30:15.556Z,6.49
2023-02-02T08:31:17.130Z,7.77
2023-02-02T08:32:14.153Z,7.55
2023-02-02T08:33:14.129Z,7.95
2023-02-02T08:34:14.096Z,7.10
2023-02-02T08:35:10.952Z,7.65
2023-02-02T08:36:16.856Z,8.35
2023-02-02T08:37:13.641Z,7.94
2023-02-02T08:38:10.715Z,8.32
2023-02-02T08:39:12.948Z,8.45
2023-02-02T08:40:10.509Z,9.04
2023-02-02T08:41:09.976Z,8.86
2023-02-02T08:42:06.806Z,9.13
2023-02-02T08:43:04.066Z,8.98
2023-02-02T08:44:00.976Z,8.87
2023-02-02T08:46:03.304Z,9.06
2023-02-02T08:46:17.226Z,8.59
2023-02-02T08:47:14.220Z,8.69
2023-02-02T08:48:12.715Z,8.70
2023-02-02T08:49:13.641Z,7.75
2023-02-02T08:50:13.687Z,8.38
2023-02-02T08:51:14.477Z,8.50
2023-02-02T08:52:11.234Z,8.59
2023-02-02T08:53:08.015Z,8.58
2023-02-02T08:54:04.805Z,8.79
2023-02-02T08:55:01.584Z,7.44
2023-02-02T08:55:59.934Z,8.44
2023-02-02T08:56:56.891Z,8.06
2023-02-02T08:57:53.709Z,8.50
2023-02-02T08:58:56.444Z,8.53
2023-02-02T08:59:53.279Z,5.41
2023-02-02T09:00:50.167Z,7.82
2023-02-02T09:01:46.981Z,8.41
2023-02-02T09:02:43.809Z,8.35
2023-02-02T09:03:40.644Z,8.25
2023-02-02T09:04:37.402Z,8.46
2023-02-02T09:05:35.881Z,8.76
2023-02-02T09:06:38.041Z,8.93
2023-02-02T09:07:37.420Z,9.20
2023-02-02T09:08:34.458Z,9.28
2023-02-02T09:09:31.233Z,9.18
2023-02-02T09:10:28.598Z,8.71
2023-02-02T09:11:26.536Z,8.22
2023-02-02T09:12:23.236Z,8.22
2023-02-02T09:13:21.327Z,8.30
2023-02-02T09:14:19.728Z,8.03
2023-02-02T09:15:16.554Z,8.41
2023-02-02T09:16:18.032Z,8.65
2023-02-02T09:17:14.840Z,8.51
2023-02-02T09:18:11.559Z,8.63
2023-02-02T09:19:10.263Z,8.67
2023-02-02T09:20:07.393Z,8.59
2023-02-02T09:21:07.235Z,7.30
2023-02-02T09:22:04.143Z,8.13
2023-02-02T09:23:00.861Z,8.46
2023-02-02T09:23:57.605Z,8.28
2023-02-02T09:24:54.317Z,8.27
2023-02-02T09:25:51.137Z,8.67
2023-02-02T09:26:48.272Z,8.66
2023-02-02T09:27:45.077Z,8.85
2023-02-02T09:28:44.954Z,8.71
2023-02-02T09:29:41.743Z,8.82
2023-02-02T09:30:38.515Z,8.88
2023-02-02T09:31:37.411Z,8.96
2023-02-02T09:32:34.816Z,8.31
2023-02-02T09:33:31.632Z,8.20
2023-02-02T09:34:28.619Z,8.57
2023-02-02T09:35:25.799Z,8.86
2023-02-02T09:36:24.825Z,8.71
2023-02-02T09:37:21.618Z,8.27
2023-02-02T09:38:18.343Z,7.71
2023-02-02T09:39:16.709Z,9.00
2023-02-02T09:40:27.641Z,8.60
2023-02-02T09:41:42.497Z,9.21
2023-02-02T09:43:06.447Z,9.20
2023-02-02T09:44:24.944Z,9.05
2023-02-02T09:45:40.027Z,8.72
2023-02-02T09:47:05.002Z,7.95
2023-02-02T09:48:17.266Z,8.75
2023-02-02T09:49:23.262Z,9.04
2023-02-02T09:50:40.639Z,9.08
2023-02-02T09:51:45.590Z,9.16
2023-02-02T09:53:11.597Z,9.22
2023-02-02T09:54:21.133Z,8.61
2023-02-02T09:55:38.092Z,9.35
2023-02-02T09:56:42.097Z,8.92
2023-02-02T09:57:49.730Z,9.12
2023-02-02T09:58:53.795Z,9.51
2023-02-02T09:59:54.180Z,9.89
2023-02-02T10:01:06.436Z,10.08
2023-02-02T10:02:13.560Z,9.60
2023-02-02T10:03:23.340Z,9.23
2023-02-02T10:04:39.122Z,8.83
2023-02-02T10:05:50.856Z,9.93
2023-02-02T10:06:54.895Z,9.93
2023-02-02T10:07:58.108Z,10.03
2023-02-02T10:09:13.371Z,9.71
2023-02-02T10:10:19.974Z,9.85
2023-02-02T10:11:55.796Z,10.05
2023-02-02T10:13:03.128Z,9.82
2023-02-02T10:14:43.867Z,10.12
2023-02-02T10:16:08.494Z,10.22
2023-02-02T10:17:37.356Z,10.07
2023-02-02T10:18:43.102Z,9.72
2023-02-02T10:19:42.500Z,9.83
2023-02-02T10:20:56.065Z,9.54
2023-02-02T10:22:29.993Z,9.12
2023-02-02T10:23:37.733Z,10.15
2023-02-02T10:24:36.107Z,10.00
2023-02-02T10:25:35.396Z,9.67
2023-02-02T10:26:43.739Z,10.38
2023-02-02T10:27:41.530Z,10.90
2023-02-02T10:29:01.432Z,11.09
2023-02-02T10:30:03.685Z,10.75
2023-02-02T10:31:02.069Z,10.04
2023-02-02T10:32:23.603Z,10.91
2023-02-02T10:33:39.801Z,10.90
2023-02-02T10:34:42.282Z,10.44
2023-02-02T10:35:53.625Z,10.18
2023-02-02T10:37:10.145Z,8.53
2023-02-02T10:38:37.910Z,9.82
2023-02-02T10:40:14.941Z,10.06
2023-02-02T10:41:19.927Z,10.27
2023-02-02T10:43:13.131Z,9.63
2023-02-02T10:44:29.559Z,10.05
2023-02-02T10:45:26.400Z,9.46
2023-02-02T10:46:31.385Z,9.78
2023-02-02T10:47:32.350Z,9.64
2023-02-02T10:48:36.002Z,9.58
2023-02-02T10:49:36.706Z,8.03
2023-02-02T10:50:35.505Z,8.86
2023-02-02T10:51:32.544Z,9.22
2023-02-02T10:52:34.962Z,10.25
2023-02-02T10:53:33.370Z,9.67
2023-02-02T10:55:00.935Z,10.62
2023-02-02T10:56:05.971Z,9.50
2023-02-02T10:57:07.606Z,8.82
2023-02-02T10:58:13.239Z,9.74
2023-02-02T10:59:24.952Z,8.45
2023-02-02T11:00:35.056Z,10.14
2023-02-02T11:01:32.022Z,10.05
2023-02-02T11:02:28.886Z,10.37
2023-02-02T11:03:29.760Z,9.53
2023-02-02T11:04:45.561Z,10.29
2023-02-02T11:06:18.513Z,9.92
2023-02-02T11:07:20.584Z,9.80
2023-02-02T11:08:27.259Z,10.21
2023-02-02T11:09:39.846Z,10.56
2023-02-02T11:10:36.548Z,9.63
2023-02-02T11:11:43.308Z,10.28
2023-02-02T11:12:46.942Z,10.21
2023-02-02T11:14:08.515Z,10.39
2023-02-02T11:15:28.151Z,10.35
2023-02-02T11:16:44.240Z,10.37
2023-02-02T11:17:43.529Z,10.62
2023-02-02T11:18:44.273Z,11.11
2023-02-02T11:19:41.264Z,11.00
2023-02-02T11:20:39.168Z,10.59
2023-02-02T11:21:38.632Z,10.28
2023-02-02T11:22:38.652Z,7.62
2023-02-02T11:23:35.592Z,10.68
2023-02-02T11:24:47.057Z,10.13
2023-02-02T11:26:00.970Z,9.04
2023-02-02T11:27:22.261Z,9.90
2023-02-02T11:28:28.633Z,10.03
2023-02-02T11:29:41.472Z,9.90
2023-02-02T11:30:41.591Z,10.10
2023-02-02T11:31:38.563Z,9.58
2023-02-02T11:32:35.701Z,10.18
2023-02-02T11:33:37.010Z,10.20
2023-02-02T11:34:39.829Z,9.18
2023-02-02T11:35:39.117Z,8.45
2023-02-02T11:36:35.971Z,10.13
2023-02-02T11:37:35.417Z,10.16
2023-02-02T11:38:33.174Z,9.63
2023-02-02T11:39:30.414Z,10.38
2023-02-02T11:40:36.975Z,9.97
2023-02-02T11:41:33.945Z,9.40
2023-02-02T11:42:30.812Z,10.13
2023-02-02T11:43:41.186Z,9.59
2023-02-02T11:44:40.373Z,10.04
2023-02-02T11:45:43.504Z,10.23
2023-02-02T11:46:40.329Z,10.14
2023-02-02T11:47:37.189Z,10.49
2023-02-02T11:48:48.489Z,10.16
2023-02-02T11:49:51.619Z,11.03
2023-02-02T11:50:55.375Z,10.47
2023-02-02T11:52:05.479Z,10.85
2023-02-02T11:53:02.359Z,10.49
2023-02-02T11:54:08.044Z,11.10
2023-02-02T11:55:17.619Z,10.99
2023-02-02T11:56:27.992Z,11.57
2023-02-02T11:57:28.385Z,10.94
2023-02-02T11:58:29.499Z,10.71
2023-02-02T11:59:32.735Z,10.73
2023-02-02T12:00:30.586Z,9.80
2023-02-02T12:01:36.817Z,10.49
2023-02-02T12:02:34.158Z,10.63
2023-02-02T12:03:55.090Z,11.17
2023-02-02T12:04:54.562Z,11.21
2023-02-02T12:05:51.455Z,10.90
2023-02-02T12:06:48.184Z,11.10
2023-02-02T12:07:45.623Z,11.08
2023-02-02T12:08:42.478Z,10.92
2023-02-02T12:09:39.216Z,10.11
2023-02-02T12:10:44.812Z,10.67
2023-02-02T12:12:03.324Z,10.68
2023-02-02T12:13:18.170Z,10.79
2023-02-02T12:14:32.855Z,10.66
2023-02-02T12:15:46.602Z,10.54
2023-02-02T12:17:18.713Z,9.94
2023-02-02T12:18:32.373Z,10.37
2023-02-02T12:19:56.051Z,10.09
2023-02-02T12:21:04.819Z,10.37
2023-02-02T12:22:23.409Z,10.19
2023-02-02T12:23:37.143Z,10.11
2023-02-02T12:24:53.884Z,10.13
2023-02-02T12:26:10.387Z,10.14
2023-02-02T12:27:20.093Z,10.00
2023-02-02T12:28:25.595Z,9.97
2023-02-02T12:30:05.307Z,10.07
2023-02-02T12:31:48.848Z,10.04
2023-02-02T12:33:03.932Z,8.13
2023-02-02T12:34:26.640Z,10.13
2023-02-02T12:35:41.704Z,10.54
2023-02-02T12:37:06.664Z,9.96
2023-02-02T12:38:06.280Z,10.39
2023-02-02T12:39:05.423Z,10.42
2023-02-02T12:40:17.372Z,10.24
2023-02-02T12:42:09.755Z,10.07
2023-02-02T12:43:24.594Z,10.17
2023-02-02T12:44:50.980Z,10.11
2023-02-02T12:46:17.452Z,10.01
2023-02-02T12:47:17.034Z,9.93
2023-02-02T12:48:25.652Z,9.89
2023-02-02T12:49:59.640Z,9.07
2023-02-02T12:51:20.962Z,9.83
2023-02-02T12:52:26.348Z,9.89
2023-02-02T12:53:35.294Z,9.73
2023-02-02T12:55:00.784Z,9.56
2023-02-02T12:56:40.609Z,9.44
2023-02-02T12:57:40.090Z,9.79
2023-02-02T12:58:46.074Z,9.61
2023-02-02T13:00:20.116Z,9.69
2023-02-02T13:01:22.972Z,9.54
2023-02-02T13:02:31.877Z,9.72
2023-02-02T13:03:34.662Z,9.91
2023-02-02T13:04:47.207Z,9.83
2023-02-02T13:06:02.398Z,10.03
2023-02-02T13:07:20.689Z,9.78
2023-02-02T13:08:57.950Z,9.99
2023-02-02T13:10:17.532Z,10.15
2023-02-02T13:11:30.993Z,10.15
2023-02-02T13:12:33.247Z,10.53
2023-02-02T13:13:36.905Z,10.69
2023-02-02T13:15:02.636Z,10.49
2023-02-02T13:16:09.175Z,9.43
2023-02-02T13:17:19.431Z,10.62
2023-02-02T13:18:20.926Z,10.21
2023-02-02T13:19:34.409Z,10.51
2023-02-02T13:20:43.268Z,10.41
2023-02-02T13:21:44.847Z,10.54
2023-02-02T13:22:45.572Z,9.82
2023-02-02T13:23:50.988Z,10.09
2023-02-02T13:24:53.111Z,9.90
2023-02-02T13:26:01.378Z,9.45
2023-02-02T13:27:03.209Z,9.81
2023-02-02T13:28:04.669Z,9.27
2023-02-02T13:29:10.283Z,9.82
2023-02-02T13:30:34.173Z,9.89
2023-02-02T13:31:44.500Z,9.85
2023-02-02T13:32:46.593Z,9.98
2023-02-02T13:33:48.571Z,9.05
2023-02-02T13:35:02.902Z,9.87
2023-02-02T13:36:29.562Z,9.82
2023-02-02T13:37:37.295Z,9.06
2023-02-02T13:38:35.098Z,9.08
2023-02-02T13:39:47.925Z,8.98
2023-02-02T13:40:45.470Z,9.51
2023-02-02T13:41:44.310Z,9.46
2023-02-02T13:42:55.193Z,9.07
2023-02-02T13:43:59.851Z,9.29
2023-02-02T13:45:07.946Z,9.03